sensor_id;sensor_type;location;lat;lon;timestamp;temperature;humidity
6293;DHT22;3179;54.350;10.102;2022-12-20T00:01:11;6.30;99.90
6293;DHT22;3179;54.350;10.102;2022-12-20T00:03:38;6.30;99.90
6293;DHT22;3179;54.350;10.102;2022-12-20T00:06:06;6.40;99.90
6293;DHT22;3179;54.350;10.102;2022-12-20T00:08:33;6.30;99.90
6293;DHT22;3179;54.350;10.102;2022-12-20T00:11:02;6.40;99.90
6293;DHT22;3179;54.350;10.102;2022-12-20T00:13:31;6.40;99.90
6293;DHT22;3179;54.350;10.102;2022-12-20T00:16:09;6.40;99.90
6293;DHT22;3179;54.350;10.102;2022-12-20T00:18:38;6.40;99.90
6293;DHT22;3179;54.350;10.102;2022-12-20T00:21:06;6.40;99.90
6293;DHT22;3179;54.350;10.102;2022-12-20T00:23:35;6.40;99.90
6293;DHT22;3179;54.350;10.102;2022-12-20T00:26:04;6.40;99.90
6293;DHT22;3179;54.350;10.102;2022-12-20T00:28:32;6.50;99.90
6293;DHT22;3179;54.350;10.102;2022-12-20T00:30:59;6.50;99.90
6293;DHT22;3179;54.350;10.102;2022-12-20T00:33:28;6.50;99.90
6293;DHT22;3179;54.350;10.102;2022-12-20T00:35:55;6.50;99.90
6293;DHT22;3179;54.350;10.102;2022-12-20T00:38:23;6.50;99.90
6293;DHT22;3179;54.350;10.102;2022-12-20T00:40:58;6.50;99.90
6293;DHT22;3179;54.350;10.102;2022-12-20T00:43:26;6.50;99.90
6293;DHT22;3179;54.350;10.102;2022-12-20T00:45:53;6.50;99.90
6293;DHT22;3179;54.350;10.102;2022-12-20T00:48:19;6.50;99.90
6293;DHT22;3179;54.350;10.102;2022-12-20T00:50:48;6.50;99.90
6293;DHT22;3179;54.350;10.102;2022-12-20T00:53:14;6.50;99.90
6293;DHT22;3179;54.350;10.102;2022-12-20T00:55:42;6.50;99.90
6293;DHT22;3179;54.350;10.102;2022-12-20T00:58:09;6.50;99.90
6293;DHT22;3179;54.350;10.102;2022-12-20T01:00:36;6.50;99.90
6293;DHT22;3179;54.350;10.102;2022-12-20T01:03:04;6.60;99.90
6293;DHT22;3179;54.350;10.102;2022-12-20T01:05:30;6.60;99.90
6293;DHT22;3179;54.350;10.102;2022-12-20T01:07:59;6.60;99.90
6293;DHT22;3179;54.350;10.102;2022-12-20T01:10:26;6.60;99.90
6293;DHT22;3179;54.350;10.102;2022-12-20T01:12:53;6.60;99.90
6293;DHT22;3179;54.350;10.102;2022-12-20T01:15:20;6.60;99.90
6293;DHT22;3179;54.350;10.102;2022-12-20T01:17:47;6.60;99.90
6293;DHT22;3179;54.350;10.102;2022-12-20T01:20:20;6.60;99.90
6293;DHT22;3179;54.350;10.102;2022-12-20T01:22:47;6.60;99.90
6293;DHT22;3179;54.350;10.102;2022-12-20T01:25:15;6.60;99.90
6293;DHT22;3179;54.350;10.102;2022-12-20T01:27:43;6.70;99.90
6293;DHT22;3179;54.350;10.102;2022-12-20T01:30:11;6.70;99.90
6293;DHT22;3179;54.350;10.102;2022-12-20T01:32:38;6.70;99.90
6293;DHT22;3179;54.350;10.102;2022-12-20T01:35:05;6.70;99.90
6293;DHT22;3179;54.350;10.102;2022-12-20T01:37:32;6.70;99.90
6293;DHT22;3179;54.350;10.102;2022-12-20T01:39:59;6.70;99.90
6293;DHT22;3179;54.350;10.102;2022-12-20T01:42:28;6.70;99.90
6293;DHT22;3179;54.350;10.102;2022-12-20T01:44:57;6.70;99.90
6293;DHT22;3179;54.350;10.102;2022-12-20T01:47:25;6.70;99.90
6293;DHT22;3179;54.350;10.102;2022-12-20T01:49:54;6.70;99.90
6293;DHT22;3179;54.350;10.102;2022-12-20T01:52:27;6.80;99.90
6293;DHT22;3179;54.350;10.102;2022-12-20T01:54:59;6.80;99.90
6293;DHT22;3179;54.350;10.102;2022-12-20T01:57:36;6.70;99.90
6293;DHT22;3179;54.350;10.102;2022-12-20T02:00:06;6.80;99.90
6293;DHT22;3179;54.350;10.102;2022-12-20T02:02:34;6.80;99.90
6293;DHT22;3179;54.350;10.102;2022-12-20T02:05:02;6.80;99.90
6293;DHT22;3179;54.350;10.102;2022-12-20T02:07:30;6.80;99.90
6293;DHT22;3179;54.350;10.102;2022-12-20T02:10:00;6.80;99.90
6293;DHT22;3179;54.350;10.102;2022-12-20T02:12:34;6.80;99.90
6293;DHT22;3179;54.350;10.102;2022-12-20T02:15:34;6.80;99.90
6293;DHT22;3179;54.350;10.102;2022-12-20T02:18:15;6.90;99.90
6293;DHT22;3179;54.350;10.102;2022-12-20T02:21:13;6.90;99.90
6293;DHT22;3179;54.350;10.102;2022-12-20T02:24:07;6.90;99.90
6293;DHT22;3179;54.350;10.102;2022-12-20T02:27:14;6.90;99.90
6293;DHT22;3179;54.350;10.102;2022-12-20T02:30:10;6.90;99.90
6293;DHT22;3179;54.350;10.102;2022-12-20T02:32:43;6.90;99.90
6293;DHT22;3179;54.350;10.102;2022-12-20T02:35:20;6.90;99.90
6293;DHT22;3179;54.350;10.102;2022-12-20T02:37:51;6.90;99.90
6293;DHT22;3179;54.350;10.102;2022-12-20T02:40:22;6.90;99.90
6293;DHT22;3179;54.350;10.102;2022-12-20T02:42:52;6.90;99.90
6293;DHT22;3179;54.350;10.102;2022-12-20T02:45:26;6.90;99.90
6293;DHT22;3179;54.350;10.102;2022-12-20T02:47:55;7.00;99.90
6293;DHT22;3179;54.350;10.102;2022-12-20T02:50:27;7.00;99.90
6293;DHT22;3179;54.350;10.102;2022-12-20T02:52:55;7.00;99.90
6293;DHT22;3179;54.350;10.102;2022-12-20T02:55:29;7.00;99.90
6293;DHT22;3179;54.350;10.102;2022-12-20T02:57:59;7.00;99.90
6293;DHT22;3179;54.350;10.102;2022-12-20T03:00:32;7.00;99.90
6293;DHT22;3179;54.350;10.102;2022-12-20T03:03:00;7.00;99.90
6293;DHT22;3179;54.350;10.102;2022-12-20T03:05:46;7.00;99.90
6293;DHT22;3179;54.350;10.102;2022-12-20T03:08:14;7.00;99.90
6293;DHT22;3179;54.350;10.102;2022-12-20T03:10:42;7.00;99.90
6293;DHT22;3179;54.350;10.102;2022-12-20T03:13:09;7.00;99.90
6293;DHT22;3179;54.350;10.102;2022-12-20T03:15:37;7.00;99.90
6293;DHT22;3179;54.350;10.102;2022-12-20T03:18:04;7.00;99.90
6293;DHT22;3179;54.350;10.102;2022-12-20T03:20:32;7.00;99.90
6293;DHT22;3179;54.350;10.102;2022-12-20T03:22:59;7.10;99.90
6293;DHT22;3179;54.350;10.102;2022-12-20T03:25:25;7.00;99.90
6293;DHT22;3179;54.350;10.102;2022-12-20T03:27:52;7.10;99.90
6293;DHT22;3179;54.350;10.102;2022-12-20T03:30:20;7.00;99.90
6293;DHT22;3179;54.350;10.102;2022-12-20T03:32:48;7.10;99.90
6293;DHT22;3179;54.350;10.102;2022-12-20T03:35:15;7.10;99.90
6293;DHT22;3179;54.350;10.102;2022-12-20T03:37:41;7.10;99.90
6293;DHT22;3179;54.350;10.102;2022-12-20T03:40:09;7.10;99.90
6293;DHT22;3179;54.350;10.102;2022-12-20T03:42:37;7.10;99.90
6293;DHT22;3179;54.350;10.102;2022-12-20T03:45:05;7.10;99.90
6293;DHT22;3179;54.350;10.102;2022-12-20T03:47:32;7.10;99.90
6293;DHT22;3179;54.350;10.102;2022-12-20T03:50:00;7.10;99.90
6293;DHT22;3179;54.350;10.102;2022-12-20T03:52:27;7.10;99.90
6293;DHT22;3179;54.350;10.102;2022-12-20T03:54:55;7.10;99.90
6293;DHT22;3179;54.350;10.102;2022-12-20T03:57:22;7.20;99.90
6293;DHT22;3179;54.350;10.102;2022-12-20T03:59:49;7.20;99.90
6293;DHT22;3179;54.350;10.102;2022-12-20T04:02:16;7.20;99.90
6293;DHT22;3179;54.350;10.102;2022-12-20T04:04:43;7.20;99.90
6293;DHT22;3179;54.350;10.102;2022-12-20T04:07:11;7.20;99.90
6293;DHT22;3179;54.350;10.102;2022-12-20T04:09:38;7.20;99.90
6293;DHT22;3179;54.350;10.102;2022-12-20T04:12:10;7.20;99.90
6293;DHT22;3179;54.350;10.102;2022-12-20T04:14:36;7.20;99.90
6293;DHT22;3179;54.350;10.102;2022-12-20T04:17:03;7.20;99.90
6293;DHT22;3179;54.350;10.102;2022-12-20T04:19:30;7.20;99.90
6293;DHT22;3179;54.350;10.102;2022-12-20T04:21:57;7.20;99.90
6293;DHT22;3179;54.350;10.102;2022-12-20T04:24:25;7.30;99.90
6293;DHT22;3179;54.350;10.102;2022-12-20T04:26:52;7.30;99.90
6293;DHT22;3179;54.350;10.102;2022-12-20T04:29:19;7.30;99.90
6293;DHT22;3179;54.350;10.102;2022-12-20T04:31:46;7.30;99.90
6293;DHT22;3179;54.350;10.102;2022-12-20T04:34:13;7.30;99.90
6293;DHT22;3179;54.350;10.102;2022-12-20T04:36:39;7.30;99.90
6293;DHT22;3179;54.350;10.102;2022-12-20T04:39:06;7.30;99.90
6293;DHT22;3179;54.350;10.102;2022-12-20T04:41:34;7.30;99.90
6293;DHT22;3179;54.350;10.102;2022-12-20T04:44:01;7.30;99.90
6293;DHT22;3179;54.350;10.102;2022-12-20T04:46:28;7.30;99.90
6293;DHT22;3179;54.350;10.102;2022-12-20T04:48:54;7.30;99.90
6293;DHT22;3179;54.350;10.102;2022-12-20T04:51:21;7.30;99.90
6293;DHT22;3179;54.350;10.102;2022-12-20T04:53:48;7.30;99.90
6293;DHT22;3179;54.350;10.102;2022-12-20T04:56:16;7.30;99.90
6293;DHT22;3179;54.350;10.102;2022-12-20T04:58:46;7.40;99.90
6293;DHT22;3179;54.350;10.102;2022-12-20T05:01:13;7.40;99.90
6293;DHT22;3179;54.350;10.102;2022-12-20T05:03:40;7.40;99.90
6293;DHT22;3179;54.350;10.102;2022-12-20T05:06:08;7.40;99.90
6293;DHT22;3179;54.350;10.102;2022-12-20T05:08:35;7.40;99.90
6293;DHT22;3179;54.350;10.102;2022-12-20T05:11:02;7.40;99.90
6293;DHT22;3179;54.350;10.102;2022-12-20T05:13:29;7.40;99.90
6293;DHT22;3179;54.350;10.102;2022-12-20T05:15:57;7.40;99.90
6293;DHT22;3179;54.350;10.102;2022-12-20T05:18:25;7.40;99.90
6293;DHT22;3179;54.350;10.102;2022-12-20T05:20:55;7.40;99.90
6293;DHT22;3179;54.350;10.102;2022-12-20T05:23:36;7.40;99.90
6293;DHT22;3179;54.350;10.102;2022-12-20T05:26:21;7.40;99.90
6293;DHT22;3179;54.350;10.102;2022-12-20T05:28:49;7.40;99.90
6293;DHT22;3179;54.350;10.102;2022-12-20T05:31:17;7.40;99.90
6293;DHT22;3179;54.350;10.102;2022-12-20T05:33:44;7.40;99.90
6293;DHT22;3179;54.350;10.102;2022-12-20T05:36:11;7.50;99.90
6293;DHT22;3179;54.350;10.102;2022-12-20T05:38:38;7.40;99.90
6293;DHT22;3179;54.350;10.102;2022-12-20T05:41:04;7.40;99.90
6293;DHT22;3179;54.350;10.102;2022-12-20T05:43:31;7.50;99.90
6293;DHT22;3179;54.350;10.102;2022-12-20T05:45:58;7.50;99.90
6293;DHT22;3179;54.350;10.102;2022-12-20T05:48:27;7.50;99.90
6293;DHT22;3179;54.350;10.102;2022-12-20T05:50:53;7.50;99.90
6293;DHT22;3179;54.350;10.102;2022-12-20T05:53:20;7.50;99.90
6293;DHT22;3179;54.350;10.102;2022-12-20T05:55:48;7.60;99.90
6293;DHT22;3179;54.350;10.102;2022-12-20T05:58:15;7.50;99.90
6293;DHT22;3179;54.350;10.102;2022-12-20T06:00:43;7.60;99.90
6293;DHT22;3179;54.350;10.102;2022-12-20T06:03:10;7.60;99.90
6293;DHT22;3179;54.350;10.102;2022-12-20T06:05:40;7.60;99.90
6293;DHT22;3179;54.350;10.102;2022-12-20T06:08:09;7.60;99.90
6293;DHT22;3179;54.350;10.102;2022-12-20T06:10:36;7.60;99.90
6293;DHT22;3179;54.350;10.102;2022-12-20T06:13:05;7.60;99.90
6293;DHT22;3179;54.350;10.102;2022-12-20T06:15:33;7.60;99.90
6293;DHT22;3179;54.350;10.102;2022-12-20T06:17:59;7.60;99.90
6293;DHT22;3179;54.350;10.102;2022-12-20T06:20:26;7.60;99.90
6293;DHT22;3179;54.350;10.102;2022-12-20T06:22:54;7.60;99.90
6293;DHT22;3179;54.350;10.102;2022-12-20T06:25:21;7.60;99.90
6293;DHT22;3179;54.350;10.102;2022-12-20T06:27:48;7.60;99.90
6293;DHT22;3179;54.350;10.102;2022-12-20T06:30:15;7.60;99.90
6293;DHT22;3179;54.350;10.102;2022-12-20T06:32:42;7.60;99.90
6293;DHT22;3179;54.350;10.102;2022-12-20T06:35:09;7.80;99.90
6293;DHT22;3179;54.350;10.102;2022-12-20T06:37:36;7.70;99.90
6293;DHT22;3179;54.350;10.102;2022-12-20T06:40:08;7.70;99.90
6293;DHT22;3179;54.350;10.102;2022-12-20T06:42:35;7.70;99.90
6293;DHT22;3179;54.350;10.102;2022-12-20T06:45:01;7.70;99.90
6293;DHT22;3179;54.350;10.102;2022-12-20T06:47:28;7.70;99.90
6293;DHT22;3179;54.350;10.102;2022-12-20T06:49:55;7.70;99.90
6293;DHT22;3179;54.350;10.102;2022-12-20T06:52:22;7.70;99.90
6293;DHT22;3179;54.350;10.102;2022-12-20T06:54:48;7.70;99.90
6293;DHT22;3179;54.350;10.102;2022-12-20T06:57:16;7.70;99.90
6293;DHT22;3179;54.350;10.102;2022-12-20T06:59:43;7.80;99.90
6293;DHT22;3179;54.350;10.102;2022-12-20T07:02:10;7.80;99.90
6293;DHT22;3179;54.350;10.102;2022-12-20T07:04:37;7.80;99.90
6293;DHT22;3179;54.350;10.102;2022-12-20T07:07:04;7.80;99.90
6293;DHT22;3179;54.350;10.102;2022-12-20T07:09:31;7.80;99.90
6293;DHT22;3179;54.350;10.102;2022-12-20T07:11:58;7.80;99.90
6293;DHT22;3179;54.350;10.102;2022-12-20T07:14:26;7.80;99.90
6293;DHT22;3179;54.350;10.102;2022-12-20T07:16:53;7.80;99.90
6293;DHT22;3179;54.350;10.102;2022-12-20T07:19:20;7.90;99.90
6293;DHT22;3179;54.350;10.102;2022-12-20T07:21:47;7.90;99.90
6293;DHT22;3179;54.350;10.102;2022-12-20T07:24:14;7.90;99.90
6293;DHT22;3179;54.350;10.102;2022-12-20T07:26:42;7.90;99.90
6293;DHT22;3179;54.350;10.102;2022-12-20T07:29:09;7.90;99.90
6293;DHT22;3179;54.350;10.102;2022-12-20T07:31:37;7.90;99.90
6293;DHT22;3179;54.350;10.102;2022-12-20T07:34:04;7.90;99.90
6293;DHT22;3179;54.350;10.102;2022-12-20T07:36:31;8.00;99.90
6293;DHT22;3179;54.350;10.102;2022-12-20T07:38:58;8.00;99.90
6293;DHT22;3179;54.350;10.102;2022-12-20T07:41:24;8.00;99.90
6293;DHT22;3179;54.350;10.102;2022-12-20T07:43:51;8.00;99.90
6293;DHT22;3179;54.350;10.102;2022-12-20T07:46:18;8.00;99.90
6293;DHT22;3179;54.350;10.102;2022-12-20T07:48:47;8.00;99.90
6293;DHT22;3179;54.350;10.102;2022-12-20T07:51:15;8.00;99.90
6293;DHT22;3179;54.350;10.102;2022-12-20T07:53:45;8.00;99.90
6293;DHT22;3179;54.350;10.102;2022-12-20T07:56:14;8.10;99.90
6293;DHT22;3179;54.350;10.102;2022-12-20T07:58:42;8.10;99.90
6293;DHT22;3179;54.350;10.102;2022-12-20T08:01:10;8.10;99.90
6293;DHT22;3179;54.350;10.102;2022-12-20T08:03:41;8.10;99.90
6293;DHT22;3179;54.350;10.102;2022-12-20T08:06:11;8.10;99.90
6293;DHT22;3179;54.350;10.102;2022-12-20T08:08:42;8.10;99.90
6293;DHT22;3179;54.350;10.102;2022-12-20T08:11:10;8.20;99.90
6293;DHT22;3179;54.350;10.102;2022-12-20T08:13:37;8.20;99.90
6293;DHT22;3179;54.350;10.102;2022-12-20T08:16:05;8.20;99.90
6293;DHT22;3179;54.350;10.102;2022-12-20T08:18:32;8.20;99.90
6293;DHT22;3179;54.350;10.102;2022-12-20T08:20:58;8.20;99.90
6293;DHT22;3179;54.350;10.102;2022-12-20T08:23:27;8.20;99.90
6293;DHT22;3179;54.350;10.102;2022-12-20T08:25:53;8.20;99.90
6293;DHT22;3179;54.350;10.102;2022-12-20T08:28:20;8.20;99.90
6293;DHT22;3179;54.350;10.102;2022-12-20T08:30:48;8.20;99.90
6293;DHT22;3179;54.350;10.102;2022-12-20T08:33:15;8.30;99.90
6293;DHT22;3179;54.350;10.102;2022-12-20T08:35:41;8.30;99.90
6293;DHT22;3179;54.350;10.102;2022-12-20T08:38:09;8.30;99.90
6293;DHT22;3179;54.350;10.102;2022-12-20T08:40:37;8.30;99.90
6293;DHT22;3179;54.350;10.102;2022-12-20T08:43:04;8.30;99.90
6293;DHT22;3179;54.350;10.102;2022-12-20T08:45:30;8.30;99.90
6293;DHT22;3179;54.350;10.102;2022-12-20T08:47:57;8.30;99.90
6293;DHT22;3179;54.350;10.102;2022-12-20T08:50:24;8.40;99.90
6293;DHT22;3179;54.350;10.102;2022-12-20T08:52:51;8.40;99.90
6293;DHT22;3179;54.350;10.102;2022-12-20T08:55:18;8.40;99.90
6293;DHT22;3179;54.350;10.102;2022-12-20T08:57:46;8.40;99.90
6293;DHT22;3179;54.350;10.102;2022-12-20T09:00:14;8.50;99.90
6293;DHT22;3179;54.350;10.102;2022-12-20T09:02:40;8.50;99.90
6293;DHT22;3179;54.350;10.102;2022-12-20T09:05:08;8.50;99.90
6293;DHT22;3179;54.350;10.102;2022-12-20T09:07:35;8.50;99.90
6293;DHT22;3179;54.350;10.102;2022-12-20T09:10:01;8.50;99.90
6293;DHT22;3179;54.350;10.102;2022-12-20T09:12:28;8.50;99.90
6293;DHT22;3179;54.350;10.102;2022-12-20T09:14:56;8.60;99.90
6293;DHT22;3179;54.350;10.102;2022-12-20T09:17:23;8.60;99.90
6293;DHT22;3179;54.350;10.102;2022-12-20T09:19:50;8.60;99.90
6293;DHT22;3179;54.350;10.102;2022-12-20T09:22:16;8.60;99.90
6293;DHT22;3179;54.350;10.102;2022-12-20T09:24:43;8.60;99.90
6293;DHT22;3179;54.350;10.102;2022-12-20T09:27:10;8.70;99.90
6293;DHT22;3179;54.350;10.102;2022-12-20T09:29:37;8.60;99.90
6293;DHT22;3179;54.350;10.102;2022-12-20T09:32:05;8.60;99.90
6293;DHT22;3179;54.350;10.102;2022-12-20T09:34:33;8.70;99.90
6293;DHT22;3179;54.350;10.102;2022-12-20T09:36:59;8.70;99.90
6293;DHT22;3179;54.350;10.102;2022-12-20T09:39:26;8.70;99.90
6293;DHT22;3179;54.350;10.102;2022-12-20T09:41:53;8.70;99.90
6293;DHT22;3179;54.350;10.102;2022-12-20T09:44:24;8.70;99.90
6293;DHT22;3179;54.350;10.102;2022-12-20T09:46:54;8.80;99.90
6293;DHT22;3179;54.350;10.102;2022-12-20T09:49:26;8.80;99.90
6293;DHT22;3179;54.350;10.102;2022-12-20T09:52:05;8.80;99.90
6293;DHT22;3179;54.350;10.102;2022-12-20T09:54:40;8.90;99.90
6293;DHT22;3179;54.350;10.102;2022-12-20T09:57:15;8.80;99.90
6293;DHT22;3179;54.350;10.102;2022-12-20T09:59:44;8.90;99.90
6293;DHT22;3179;54.350;10.102;2022-12-20T10:02:12;8.90;99.90
6293;DHT22;3179;54.350;10.102;2022-12-20T10:04:43;8.90;99.90
6293;DHT22;3179;54.350;10.102;2022-12-20T10:07:21;8.90;99.90
6293;DHT22;3179;54.350;10.102;2022-12-20T10:10:15;8.90;99.90
6293;DHT22;3179;54.350;10.102;2022-12-20T10:12:50;9.00;99.90
6293;DHT22;3179;54.350;10.102;2022-12-20T10:15:22;9.00;99.90
6293;DHT22;3179;54.350;10.102;2022-12-20T10:18:05;9.00;99.90
6293;DHT22;3179;54.350;10.102;2022-12-20T10:20:45;8.90;99.90
6293;DHT22;3179;54.350;10.102;2022-12-20T10:23:20;9.00;99.90
6293;DHT22;3179;54.350;10.102;2022-12-20T10:25:50;9.00;99.90
6293;DHT22;3179;54.350;10.102;2022-12-20T10:28:19;9.00;99.90
6293;DHT22;3179;54.350;10.102;2022-12-20T10:30:50;9.00;99.90
6293;DHT22;3179;54.350;10.102;2022-12-20T10:33:20;9.00;99.90
6293;DHT22;3179;54.350;10.102;2022-12-20T10:35:49;9.10;99.90
6293;DHT22;3179;54.350;10.102;2022-12-20T10:38:17;9.10;99.90
6293;DHT22;3179;54.350;10.102;2022-12-20T10:40:46;9.10;99.90
6293;DHT22;3179;54.350;10.102;2022-12-20T10:43:15;9.10;99.90
6293;DHT22;3179;54.350;10.102;2022-12-20T10:45:45;9.10;99.90
6293;DHT22;3179;54.350;10.102;2022-12-20T10:48:28;9.10;99.90
6293;DHT22;3179;54.350;10.102;2022-12-20T10:50:59;9.00;99.90
6293;DHT22;3179;54.350;10.102;2022-12-20T10:53:27;9.10;99.90
6293;DHT22;3179;54.350;10.102;2022-12-20T10:56:15;9.00;99.90
6293;DHT22;3179;54.350;10.102;2022-12-20T10:58:51;9.10;99.90
6293;DHT22;3179;54.350;10.102;2022-12-20T11:01:20;9.10;99.90
6293;DHT22;3179;54.350;10.102;2022-12-20T11:03:56;9.10;99.90
6293;DHT22;3179;54.350;10.102;2022-12-20T11:06:27;9.10;99.90
6293;DHT22;3179;54.350;10.102;2022-12-20T11:09:24;9.10;99.90
6293;DHT22;3179;54.350;10.102;2022-12-20T11:12:03;9.10;99.90
6293;DHT22;3179;54.350;10.102;2022-12-20T11:14:32;9.20;99.90
6293;DHT22;3179;54.350;10.102;2022-12-20T11:17:02;9.20;99.90
6293;DHT22;3179;54.350;10.102;2022-12-20T11:22:33;9.20;99.90
6293;DHT22;3179;54.350;10.102;2022-12-20T11:25:16;9.20;99.90
6293;DHT22;3179;54.350;10.102;2022-12-20T11:27:50;9.20;99.90
6293;DHT22;3179;54.350;10.102;2022-12-20T11:30:23;9.20;99.90
6293;DHT22;3179;54.350;10.102;2022-12-20T11:33:05;9.30;99.90
6293;DHT22;3179;54.350;10.102;2022-12-20T11:35:46;9.30;99.90
6293;DHT22;3179;54.350;10.102;2022-12-20T11:38:24;9.30;99.90
6293;DHT22;3179;54.350;10.102;2022-12-20T11:41:01;9.40;99.90
6293;DHT22;3179;54.350;10.102;2022-12-20T11:43:44;9.40;99.90
6293;DHT22;3179;54.350;10.102;2022-12-20T11:46:21;9.40;99.90
6293;DHT22;3179;54.350;10.102;2022-12-20T11:49:15;9.40;99.90
6293;DHT22;3179;54.350;10.102;2022-12-20T11:51:46;9.40;99.90
6293;DHT22;3179;54.350;10.102;2022-12-20T11:54:20;9.40;99.90
6293;DHT22;3179;54.350;10.102;2022-12-20T11:56:50;9.50;99.90
6293;DHT22;3179;54.350;10.102;2022-12-20T11:59:25;9.50;99.90
6293;DHT22;3179;54.350;10.102;2022-12-20T12:01:59;9.50;99.90
6293;DHT22;3179;54.350;10.102;2022-12-20T12:04:30;9.50;99.90
6293;DHT22;3179;54.350;10.102;2022-12-20T12:07:01;9.40;99.90
6293;DHT22;3179;54.350;10.102;2022-12-20T12:09:35;9.40;99.90
6293;DHT22;3179;54.350;10.102;2022-12-20T12:12:07;9.40;99.90
6293;DHT22;3179;54.350;10.102;2022-12-20T12:14:43;9.40;99.90
6293;DHT22;3179;54.350;10.102;2022-12-20T12:17:15;9.40;99.90
6293;DHT22;3179;54.350;10.102;2022-12-20T12:19:47;9.50;99.90
6293;DHT22;3179;54.350;10.102;2022-12-20T12:22:19;9.50;99.90
6293;DHT22;3179;54.350;10.102;2022-12-20T12:24:51;9.50;99.90
6293;DHT22;3179;54.350;10.102;2022-12-20T12:27:22;9.50;99.90
6293;DHT22;3179;54.350;10.102;2022-12-20T12:29:50;9.50;99.90
6293;DHT22;3179;54.350;10.102;2022-12-20T12:32:23;9.50;99.90
6293;DHT22;3179;54.350;10.102;2022-12-20T12:35:02;9.50;99.90
6293;DHT22;3179;54.350;10.102;2022-12-20T12:37:43;9.60;99.90
6293;DHT22;3179;54.350;10.102;2022-12-20T12:40:32;9.60;99.90
6293;DHT22;3179;54.350;10.102;2022-12-20T12:46:10;9.60;99.90
6293;DHT22;3179;54.350;10.102;2022-12-20T12:48:41;9.60;99.90
6293;DHT22;3179;54.350;10.102;2022-12-20T12:51:10;9.60;99.90
6293;DHT22;3179;54.350;10.102;2022-12-20T12:53:42;9.60;99.90
6293;DHT22;3179;54.350;10.102;2022-12-20T12:56:44;9.60;99.90
6293;DHT22;3179;54.350;10.102;2022-12-20T12:59:39;9.70;99.90
6293;DHT22;3179;54.350;10.102;2022-12-20T13:05:28;9.60;99.90
6293;DHT22;3179;54.350;10.102;2022-12-20T13:07:55;9.70;99.90
6293;DHT22;3179;54.350;10.102;2022-12-20T13:13:33;9.70;99.90
6293;DHT22;3179;54.350;10.102;2022-12-20T13:16:10;9.60;99.90
6293;DHT22;3179;54.350;10.102;2022-12-20T13:18:46;9.60;99.90
6293;DHT22;3179;54.350;10.102;2022-12-20T13:21:43;9.70;99.90
6293;DHT22;3179;54.350;10.102;2022-12-20T13:27:33;9.70;99.90
6293;DHT22;3179;54.350;10.102;2022-12-20T13:30:26;9.70;99.90
6293;DHT22;3179;54.350;10.102;2022-12-20T13:33:38;9.70;99.90
6293;DHT22;3179;54.350;10.102;2022-12-20T13:36:28;9.70;99.90
6293;DHT22;3179;54.350;10.102;2022-12-20T13:38:57;9.70;99.90
6293;DHT22;3179;54.350;10.102;2022-12-20T13:41:39;9.70;99.90
6293;DHT22;3179;54.350;10.102;2022-12-20T13:44:23;9.70;99.90
6293;DHT22;3179;54.350;10.102;2022-12-20T13:46:59;9.70;99.90
6293;DHT22;3179;54.350;10.102;2022-12-20T13:49:30;9.70;99.90
6293;DHT22;3179;54.350;10.102;2022-12-20T13:52:21;9.70;99.90
6293;DHT22;3179;54.350;10.102;2022-12-20T13:54:51;9.70;99.90
6293;DHT22;3179;54.350;10.102;2022-12-20T13:57:26;9.70;99.90
6293;DHT22;3179;54.350;10.102;2022-12-20T13:59:56;9.70;99.90
6293;DHT22;3179;54.350;10.102;2022-12-20T14:02:28;9.70;99.90
6293;DHT22;3179;54.350;10.102;2022-12-20T14:04:58;9.70;99.90
6293;DHT22;3179;54.350;10.102;2022-12-20T14:07:27;9.70;99.90
6293;DHT22;3179;54.350;10.102;2022-12-20T14:09:56;9.70;99.90
6293;DHT22;3179;54.350;10.102;2022-12-20T14:12:25;9.70;99.90
6293;DHT22;3179;54.350;10.102;2022-12-20T14:14:52;9.70;99.90
6293;DHT22;3179;54.350;10.102;2022-12-20T14:17:23;9.70;99.90
6293;DHT22;3179;54.350;10.102;2022-12-20T14:20:11;9.70;99.90
6293;DHT22;3179;54.350;10.102;2022-12-20T14:22:41;9.70;99.90
6293;DHT22;3179;54.350;10.102;2022-12-20T14:25:15;9.70;99.90
6293;DHT22;3179;54.350;10.102;2022-12-20T14:27:46;9.70;99.90
6293;DHT22;3179;54.350;10.102;2022-12-20T14:30:28;9.70;99.90
6293;DHT22;3179;54.350;10.102;2022-12-20T14:32:57;9.70;99.90
6293;DHT22;3179;54.350;10.102;2022-12-20T14:35:26;9.70;99.90
6293;DHT22;3179;54.350;10.102;2022-12-20T14:37:56;9.70;99.90
6293;DHT22;3179;54.350;10.102;2022-12-20T14:40:23;9.70;99.90
6293;DHT22;3179;54.350;10.102;2022-12-20T14:42:50;9.70;99.90
6293;DHT22;3179;54.350;10.102;2022-12-20T14:45:20;9.70;99.90
6293;DHT22;3179;54.350;10.102;2022-12-20T14:47:49;9.70;99.90
6293;DHT22;3179;54.350;10.102;2022-12-20T14:50:18;9.70;99.90
6293;DHT22;3179;54.350;10.102;2022-12-20T14:52:47;9.70;99.90
6293;DHT22;3179;54.350;10.102;2022-12-20T14:55:16;9.70;99.90
6293;DHT22;3179;54.350;10.102;2022-12-20T14:57:45;9.70;99.90
6293;DHT22;3179;54.350;10.102;2022-12-20T15:00:20;9.70;99.90
6293;DHT22;3179;54.350;10.102;2022-12-20T15:02:51;9.70;99.90
6293;DHT22;3179;54.350;10.102;2022-12-20T15:05:47;9.70;99.90
6293;DHT22;3179;54.350;10.102;2022-12-20T15:08:18;9.70;99.90
6293;DHT22;3179;54.350;10.102;2022-12-20T15:11:11;9.70;99.90
6293;DHT22;3179;54.350;10.102;2022-12-20T15:13:40;9.70;99.90
6293;DHT22;3179;54.350;10.102;2022-12-20T15:16:14;9.70;99.90
6293;DHT22;3179;54.350;10.102;2022-12-20T15:18:43;9.70;99.90
6293;DHT22;3179;54.350;10.102;2022-12-20T15:21:12;9.70;99.90
6293;DHT22;3179;54.350;10.102;2022-12-20T15:23:42;9.70;99.90
6293;DHT22;3179;54.350;10.102;2022-12-20T15:26:13;9.70;99.90
6293;DHT22;3179;54.350;10.102;2022-12-20T15:28:41;9.70;99.90
6293;DHT22;3179;54.350;10.102;2022-12-20T15:31:09;9.70;99.90
6293;DHT22;3179;54.350;10.102;2022-12-20T15:33:38;9.70;99.90
6293;DHT22;3179;54.350;10.102;2022-12-20T15:36:06;9.70;99.90
6293;DHT22;3179;54.350;10.102;2022-12-20T15:38:33;9.70;99.90
6293;DHT22;3179;54.350;10.102;2022-12-20T15:41:03;9.70;99.90
6293;DHT22;3179;54.350;10.102;2022-12-20T15:43:34;9.70;99.90
6293;DHT22;3179;54.350;10.102;2022-12-20T15:46:03;9.70;99.90
6293;DHT22;3179;54.350;10.102;2022-12-20T15:48:30;9.70;99.90
6293;DHT22;3179;54.350;10.102;2022-12-20T15:50:58;9.70;99.90
6293;DHT22;3179;54.350;10.102;2022-12-20T15:53:30;9.80;99.90
6293;DHT22;3179;54.350;10.102;2022-12-20T15:56:04;9.80;99.90
6293;DHT22;3179;54.350;10.102;2022-12-20T15:58:32;9.80;99.90
6293;DHT22;3179;54.350;10.102;2022-12-20T16:01:00;9.80;99.90
6293;DHT22;3179;54.350;10.102;2022-12-20T16:03:29;9.80;99.90
6293;DHT22;3179;54.350;10.102;2022-12-20T16:05:56;9.80;99.90
6293;DHT22;3179;54.350;10.102;2022-12-20T16:08:23;9.80;99.90
6293;DHT22;3179;54.350;10.102;2022-12-20T16:10:51;9.80;99.90
6293;DHT22;3179;54.350;10.102;2022-12-20T16:13:23;9.80;99.90
6293;DHT22;3179;54.350;10.102;2022-12-20T16:15:51;9.80;99.90
6293;DHT22;3179;54.350;10.102;2022-12-20T16:18:18;9.80;99.90
6293;DHT22;3179;54.350;10.102;2022-12-20T16:20:45;9.80;99.90
6293;DHT22;3179;54.350;10.102;2022-12-20T16:23:15;9.80;99.90
6293;DHT22;3179;54.350;10.102;2022-12-20T16:25:43;9.80;99.90
6293;DHT22;3179;54.350;10.102;2022-12-20T16:28:11;9.80;99.90
6293;DHT22;3179;54.350;10.102;2022-12-20T16:30:39;9.80;99.90
6293;DHT22;3179;54.350;10.102;2022-12-20T16:33:09;9.80;99.90
6293;DHT22;3179;54.350;10.102;2022-12-20T16:35:37;9.80;99.90
6293;DHT22;3179;54.350;10.102;2022-12-20T16:38:04;9.80;99.90
6293;DHT22;3179;54.350;10.102;2022-12-20T16:40:32;9.80;99.90